createdAt,value
2018-08-04T05:10:42.238Z,15.53
2018-08-04T05:15:44.929Z,13.65
2018-08-04T05:20:47.634Z,14.18
2018-08-04T05:25:50.417Z,15.30
2018-08-04T05:30:53.693Z,15.38
2018-08-04T05:35:56.632Z,15.38
2018-08-04T05:40:59.357Z,15.30
2018-08-04T05:46:02.122Z,13.35
2018-08-04T05:51:05.105Z,14.80
2018-08-04T05:56:09.927Z,15.20
2018-08-04T06:01:12.641Z,15.00
2018-08-04T06:06:15.338Z,15.48
2018-08-04T06:11:18.061Z,13.32
2018-08-04T06:16:20.821Z,14.38
2018-08-04T06:21:23.549Z,14.80
2018-08-04T06:26:26.273Z,15.40
2018-08-04T06:31:29.015Z,14.93
2018-08-04T06:36:31.776Z,14.68
2018-08-04T06:41:34.701Z,13.45
2018-08-04T06:46:37.433Z,14.43
2018-08-04T06:51:40.210Z,12.85
2018-08-04T06:56:42.949Z,12.33
2018-08-04T07:01:45.705Z,14.63
2018-08-04T07:06:48.461Z,14.63
2018-08-04T07:11:51.180Z,10.70
2018-08-04T07:16:53.909Z,13.22
2018-08-04T07:21:56.649Z,11.53
2018-08-04T07:26:59.393Z,12.30
2018-08-04T07:32:02.145Z,13.10
2018-08-04T07:37:05.569Z,12.40
2018-08-04T07:42:08.298Z,11.85
2018-08-04T07:47:11.076Z,13.65
2018-08-04T07:52:13.810Z,12.93
2018-08-04T07:57:16.554Z,12.90
2018-08-04T08:02:19.337Z,14.33
2018-08-04T08:07:23.797Z,13.68
2018-08-04T08:12:26.683Z,13.32
2018-08-04T08:17:29.463Z,13.15
2018-08-04T08:22:40.156Z,13.28
2018-08-04T08:27:42.877Z,12.88
2018-08-04T08:32:45.668Z,13.95
2018-08-04T08:37:48.453Z,13.28
2018-08-04T08:42:51.178Z,13.03
2018-08-04T08:47:53.909Z,13.80
2018-08-04T08:52:56.722Z,11.85
2018-08-04T08:57:59.409Z,13.70
2018-08-04T09:03:02.150Z,13.68
2018-08-04T09:08:05.064Z,13.80
2018-08-04T09:13:07.781Z,13.72
2018-08-04T09:18:10.521Z,12.55
2018-08-04T09:23:13.334Z,12.20
2018-08-04T09:28:16.094Z,13.68
2018-08-04T09:33:18.867Z,12.23
2018-08-04T09:38:21.609Z,13.22
2018-08-04T09:43:24.353Z,12.58
2018-08-04T09:48:27.110Z,12.35
2018-08-04T09:53:29.825Z,13.85
2018-08-04T09:58:32.557Z,12.47
2018-08-04T10:03:35.275Z,13.38
2018-08-04T10:08:38.010Z,11.97
2018-08-04T10:13:40.725Z,12.75
2018-08-04T10:18:43.613Z,12.82
2018-08-04T10:23:46.341Z,11.93
2018-08-04T10:28:49.070Z,11.55
2018-08-04T10:33:51.781Z,11.88
2018-08-04T10:38:54.517Z,12.13
2018-08-04T10:43:57.275Z,11.65
2018-08-04T10:49:00.005Z,10.85
2018-08-04T10:54:03.000Z,10.53
2018-08-04T10:59:06.104Z,10.50
2018-08-04T11:04:08.840Z,9.60
2018-08-04T11:09:11.901Z,9.20
2018-08-04T11:14:20.426Z,9.35
2018-08-04T11:19:23.158Z,9.78
2018-08-04T11:24:25.917Z,9.55
2018-08-04T11:29:28.677Z,8.58
2018-08-04T11:34:31.385Z,9.50
2018-08-04T11:39:34.128Z,9.58
2018-08-04T11:44:36.849Z,8.98
2018-08-04T11:49:39.553Z,8.58
2018-08-04T11:54:42.270Z,8.73
2018-08-04T11:59:44.993Z,7.70
2018-08-04T12:04:47.846Z,8.18
2018-08-04T12:09:50.573Z,8.65
2018-08-04T12:14:53.304Z,8.40
2018-08-04T12:23:37.773Z,7.80
2018-08-04T12:27:40.501Z,8.05
2018-08-04T12:31:43.225Z,8.45
2018-08-04T12:35:45.929Z,7.95
2018-08-04T12:39:48.605Z,7.65
2018-08-04T12:43:51.341Z,7.37
2018-08-04T12:47:54.414Z,8.73
2018-08-04T12:51:57.176Z,8.15
2018-08-04T12:56:00.402Z,7.78
2018-08-04T13:00:04.048Z,8.35
2018-08-04T13:04:06.884Z,8.80
2018-08-04T13:08:09.649Z,8.53
2018-08-04T13:12:12.397Z,8.43
2018-08-04T13:16:15.112Z,7.60
2018-08-04T13:20:17.849Z,7.95
2018-08-04T13:24:20.581Z,7.80
2018-08-04T13:28:23.281Z,8.03
2018-08-04T13:32:25.996Z,8.33
2018-08-04T13:36:28.717Z,8.28
2018-08-04T13:40:31.708Z,8.08
2018-08-04T13:44:34.437Z,8.15
2018-08-04T13:48:37.566Z,8.00
2018-08-04T13:52:40.297Z,8.60
2018-08-04T13:56:42.884Z,7.33
2018-08-04T14:00:45.646Z,7.97
2018-08-04T14:04:48.370Z,8.20
2018-08-04T14:08:51.113Z,7.83
2018-08-04T14:12:53.821Z,7.92
2018-08-04T14:16:56.610Z,7.97
2018-08-04T14:20:59.353Z,7.45
2018-08-04T14:25:02.089Z,7.55
2018-08-04T14:29:04.901Z,8.03
2018-08-04T14:33:07.476Z,8.18
2018-08-04T14:37:10.190Z,8.30
2018-08-04T14:41:12.901Z,6.95
2018-08-04T14:45:15.726Z,7.25
2018-08-04T14:49:18.507Z,7.58
2018-08-04T14:53:21.297Z,7.45
2018-08-04T14:57:24.081Z,7.22
2018-08-04T15:02:17.052Z,7.40
2018-08-04T15:07:09.905Z,7.20
2018-08-04T15:12:02.785Z,6.92
2018-08-04T15:16:55.734Z,6.42
2018-08-04T15:21:48.717Z,7.28
2018-08-04T15:26:41.714Z,6.70
2018-08-04T15:31:34.675Z,7.03
2018-08-04T15:36:33.323Z,6.72
2018-08-04T15:41:31.237Z,6.70
2018-08-04T15:46:28.993Z,6.78
2018-08-04T15:51:26.726Z,6.53
2018-08-04T15:56:24.498Z,6.15
2018-08-04T16:01:22.233Z,6.25
2018-08-04T16:06:20.021Z,6.20
2018-08-04T16:11:17.777Z,6.22
2018-08-04T16:16:15.548Z,6.03
2018-08-04T16:21:13.251Z,5.87
2018-08-04T16:26:10.958Z,5.92
2018-08-04T16:31:08.665Z,6.00
2018-08-04T16:36:06.401Z,6.25
2018-08-04T16:41:04.109Z,6.10
2018-08-04T16:46:01.857Z,6.40
2018-08-04T16:50:59.598Z,6.17
2018-08-04T16:55:57.445Z,6.25
2018-08-04T17:00:55.213Z,5.70
2018-08-04T17:05:52.966Z,6.30
2018-08-04T17:10:50.715Z,6.58
2018-08-04T17:15:48.469Z,6.10
2018-08-04T17:20:46.225Z,6.30
2018-08-04T17:25:44.065Z,6.50
2018-08-04T17:30:41.854Z,5.92
2018-08-04T17:35:39.601Z,6.10
2018-08-04T17:40:37.331Z,6.87
2018-08-04T17:45:35.054Z,7.33
2018-08-04T17:50:32.753Z,6.50
2018-08-04T17:55:30.492Z,7.60
2018-08-04T18:00:28.222Z,8.28
2018-08-04T18:05:25.973Z,8.85
2018-08-04T18:10:23.707Z,7.67
2018-08-04T18:15:21.457Z,7.60
2018-08-04T18:20:19.309Z,8.18
2018-08-04T18:25:17.045Z,7.55
2018-08-04T18:30:14.746Z,9.33
2018-08-04T18:35:24.494Z,8.33
2018-08-04T18:40:22.207Z,8.40
2018-08-04T18:45:19.942Z,8.18
2018-08-04T18:50:17.661Z,8.55
2018-08-04T18:55:16.429Z,8.23
2018-08-04T19:00:14.161Z,9.18
2018-08-04T19:05:11.861Z,8.50
2018-08-04T19:10:09.605Z,8.83
2018-08-04T19:15:11.282Z,8.05
2018-08-04T19:20:09.035Z,8.35
2018-08-04T19:25:06.922Z,8.25
2018-08-04T19:30:05.622Z,8.08
2018-08-04T19:35:04.054Z,8.78
